createdAt,value
2018-06-15T00:00:05.966Z,11.47
2018-06-15T00:02:35.705Z,13.40
2018-06-15T00:05:04.628Z,11.43
2018-06-15T00:07:33.453Z,10.43
2018-06-15T00:10:02.859Z,13.07
2018-06-15T00:12:32.994Z,13.37
2018-06-15T00:15:02.211Z,13.77
2018-06-15T00:17:31.551Z,13.90
2018-06-15T00:20:00.887Z,14.47
2018-06-15T00:22:29.897Z,14.23
2018-06-15T00:24:59.284Z,13.47
2018-06-15T00:27:28.515Z,13.50
2018-06-15T00:29:58.145Z,13.90
2018-06-15T00:32:27.977Z,13.93
2018-06-15T00:34:57.280Z,15.23
2018-06-15T00:37:27.680Z,14.50
2018-06-15T00:39:56.944Z,16.63
2018-06-15T00:42:26.606Z,14.83
2018-06-15T00:44:56.227Z,15.33
2018-06-15T00:47:25.620Z,13.13
2018-06-15T00:49:55.190Z,12.33
2018-06-15T00:52:24.634Z,14.87
2018-06-15T00:54:53.531Z,13.53
2018-06-15T00:57:28.383Z,12.97
2018-06-15T00:59:57.370Z,15.37
2018-06-15T01:02:26.474Z,12.30
2018-06-15T01:04:56.159Z,13.47
2018-06-15T01:07:25.734Z,14.70
2018-06-15T01:09:55.330Z,15.13
2018-06-15T01:12:24.565Z,12.40
2018-06-15T01:14:53.880Z,13.73
2018-06-15T01:17:22.794Z,12.80
2018-06-15T01:19:52.561Z,14.13
2018-06-15T01:22:22.300Z,14.80
2018-06-15T01:24:51.561Z,12.00
2018-06-15T01:27:20.851Z,16.90
2018-06-15T01:29:50.187Z,15.07
2018-06-15T01:32:19.511Z,15.37
2018-06-15T01:34:48.495Z,13.00
2018-06-15T01:37:17.922Z,15.73
2018-06-15T01:39:47.151Z,13.60
2018-06-15T01:42:16.583Z,15.80
2018-06-15T01:44:46.188Z,14.47
2018-06-15T01:47:15.588Z,13.80
2018-06-15T01:49:44.828Z,15.93
2018-06-15T01:52:14.062Z,12.90
2018-06-15T01:54:44.110Z,14.73
2018-06-15T01:57:13.374Z,13.87
2018-06-15T01:59:42.485Z,15.20
2018-06-15T02:02:11.439Z,13.80
2018-06-15T02:04:40.593Z,14.87
2018-06-15T02:07:09.654Z,14.30
2018-06-15T02:09:38.938Z,13.53
2018-06-15T02:12:08.415Z,14.47
2018-06-15T02:14:38.020Z,13.90
2018-06-15T02:17:07.254Z,13.53
2018-06-15T02:19:37.400Z,15.50
2018-06-15T02:22:07.160Z,14.97
2018-06-15T02:24:37.150Z,14.47
2018-06-15T02:27:07.268Z,16.23
2018-06-15T02:29:36.646Z,18.63
2018-06-15T02:32:06.147Z,16.17
2018-06-15T02:34:36.372Z,15.50
2018-06-15T02:37:06.374Z,14.60
2018-06-15T02:39:36.405Z,16.23
2018-06-15T02:42:06.766Z,14.63
2018-06-15T02:44:36.351Z,14.27
2018-06-15T02:47:07.285Z,15.70
2018-06-15T02:49:37.742Z,13.50
2018-06-15T02:52:08.300Z,14.57
2018-06-15T02:54:38.504Z,16.10
2018-06-15T02:57:09.221Z,15.40
2018-06-15T02:59:39.304Z,17.87
2018-06-15T03:02:09.662Z,17.40
2018-06-15T03:04:40.121Z,15.50
2018-06-15T03:07:09.884Z,19.13
2018-06-15T03:09:39.911Z,18.93
2018-06-15T03:12:10.028Z,20.70
2018-06-15T03:14:40.179Z,20.83
2018-06-15T03:17:10.014Z,21.73
2018-06-15T03:19:39.953Z,21.43
2018-06-15T03:22:09.526Z,18.50
2018-06-15T03:24:40.092Z,16.40
2018-06-15T03:27:10.477Z,17.07
2018-06-15T03:29:41.185Z,17.33
2018-06-15T03:32:10.549Z,16.47
2018-06-15T03:34:40.457Z,16.97
2018-06-15T03:37:10.749Z,17.50
2018-06-15T03:39:41.331Z,17.60
2018-06-15T03:42:11.254Z,18.37
2018-06-15T03:44:41.410Z,17.53
2018-06-15T03:47:10.917Z,15.97
2018-06-15T03:49:41.030Z,16.13
2018-06-15T03:52:10.295Z,14.93
2018-06-15T03:54:40.463Z,15.40
2018-06-15T03:57:10.828Z,15.37
2018-06-15T03:59:40.258Z,14.73
2018-06-15T04:02:09.574Z,13.50
2018-06-15T04:04:39.498Z,14.47
2018-06-15T04:07:09.018Z,13.00
2018-06-15T04:09:38.863Z,12.90
2018-06-15T04:12:08.450Z,14.90
2018-06-15T04:14:39.383Z,13.07
2018-06-15T04:17:09.277Z,12.97
2018-06-15T04:19:38.429Z,12.43
2018-06-15T04:22:08.191Z,12.10
2018-06-15T04:24:37.907Z,14.77
2018-06-15T04:27:07.517Z,12.13
2018-06-15T04:29:37.841Z,13.83
2018-06-15T04:32:08.185Z,14.57
2018-06-15T04:34:37.947Z,13.13
2018-06-15T04:37:07.446Z,13.10
2018-06-15T04:39:37.035Z,13.63
2018-06-15T04:42:06.997Z,12.70
2018-06-15T04:44:37.107Z,13.00
2018-06-15T04:47:07.441Z,11.50
2018-06-15T04:49:37.549Z,12.27
2018-06-15T04:52:07.104Z,11.53
2018-06-15T04:54:37.977Z,13.47
2018-06-15T04:57:07.763Z,11.13
2018-06-15T04:59:37.300Z,14.05
2018-06-15T05:02:06.747Z,13.50
2018-06-15T05:04:36.787Z,13.97
2018-06-15T05:07:06.701Z,14.13
2018-06-15T05:09:37.132Z,12.93
2018-06-15T05:12:07.425Z,14.90
2018-06-15T05:14:38.373Z,15.10
2018-06-15T05:17:08.144Z,13.80
2018-06-15T05:19:38.326Z,14.50
2018-06-15T05:22:08.912Z,12.33
2018-06-15T05:24:38.470Z,11.53
2018-06-15T05:27:08.755Z,10.90
2018-06-15T05:29:39.434Z,10.90
2018-06-15T05:32:09.866Z,11.20
2018-06-15T05:34:39.813Z,11.53
2018-06-15T05:37:09.386Z,11.90
2018-06-15T05:39:39.664Z,12.77
2018-06-15T05:42:10.456Z,13.37
2018-06-15T05:44:40.173Z,13.07
2018-06-15T05:47:09.583Z,15.53
2018-06-15T05:49:39.700Z,12.80
2018-06-15T05:52:09.149Z,15.27
2018-06-15T05:54:39.414Z,17.47
2018-06-15T05:57:09.665Z,18.80
2018-06-15T05:59:39.541Z,17.20
2018-06-15T06:02:10.297Z,17.27
2018-06-15T06:04:40.438Z,21.30
2018-06-15T06:07:09.839Z,19.47
2018-06-15T06:09:39.779Z,21.27
2018-06-15T06:15:03.095Z,20.60
2018-06-15T06:17:33.231Z,21.33
2018-06-15T06:20:02.655Z,22.77
2018-06-15T06:22:32.120Z,21.80
2018-06-15T06:25:02.059Z,22.27
2018-06-15T06:27:31.589Z,21.80
2018-06-15T06:30:02.092Z,22.00
2018-06-15T06:32:31.463Z,22.03
2018-06-15T06:35:00.940Z,21.07
2018-06-15T06:37:30.724Z,20.73
2018-06-15T06:40:00.326Z,22.30
2018-06-15T06:42:30.054Z,20.37
2018-06-15T06:45:00.057Z,21.63
2018-06-15T06:47:30.560Z,20.70
2018-06-15T06:50:00.047Z,20.07
2018-06-15T06:52:31.451Z,21.10
2018-06-15T06:55:00.483Z,19.53
2018-06-15T06:57:30.485Z,20.10
2018-06-15T07:00:00.443Z,18.80
2018-06-15T07:02:30.280Z,19.67
2018-06-15T07:05:00.127Z,19.33
2018-06-15T07:07:30.296Z,20.20
2018-06-15T07:10:00.299Z,21.03
2018-06-15T07:12:30.074Z,21.60
2018-06-15T07:14:59.921Z,20.50
2018-06-15T07:17:29.534Z,18.10
2018-06-15T07:19:59.048Z,19.97
2018-06-15T07:22:28.886Z,19.67
2018-06-15T07:24:58.636Z,17.70
2018-06-15T07:27:28.167Z,18.57
2018-06-15T07:29:57.547Z,19.23
2018-06-15T07:32:27.414Z,17.63
2018-06-15T07:34:57.680Z,18.63
2018-06-15T07:37:27.327Z,19.93
2018-06-15T07:39:57.135Z,17.90
2018-06-15T07:42:26.638Z,18.93
2018-06-15T07:44:55.788Z,16.60
2018-06-15T07:47:25.230Z,19.43
2018-06-15T07:49:55.054Z,20.03
2018-06-15T07:52:24.342Z,17.80
2018-06-15T07:54:53.942Z,19.27
2018-06-15T07:57:23.610Z,20.30
2018-06-15T07:59:53.159Z,18.43
2018-06-15T08:02:23.045Z,19.23
2018-06-15T08:04:52.503Z,19.10
2018-06-15T08:07:21.946Z,18.30
2018-06-15T08:09:51.308Z,19.03
2018-06-15T08:12:20.769Z,18.20
2018-06-15T08:14:50.283Z,17.70
2018-06-15T08:17:20.415Z,17.50
2018-06-15T08:19:49.573Z,17.67
2018-06-15T08:22:18.913Z,16.27
2018-06-15T08:24:48.567Z,15.97
2018-06-15T08:27:17.631Z,17.83
2018-06-15T08:29:47.188Z,17.67
2018-06-15T08:32:16.501Z,15.67
2018-06-15T08:34:46.047Z,16.40
2018-06-15T08:37:15.751Z,15.77
2018-06-15T08:39:45.073Z,15.67
2018-06-15T08:42:19.185Z,16.27
2018-06-15T08:44:48.609Z,15.70
2018-06-15T08:47:18.581Z,15.27
2018-06-15T08:49:47.889Z,15.67
2018-06-15T08:52:17.434Z,14.57
2018-06-15T08:54:46.523Z,13.80
2018-06-15T08:57:15.571Z,14.43
2018-06-15T08:59:44.870Z,14.83
2018-06-15T09:02:14.247Z,14.90
2018-06-15T09:04:43.495Z,16.20
2018-06-15T09:07:12.782Z,15.10
2018-06-15T09:09:41.888Z,14.80
2018-06-15T09:12:10.689Z,15.30
2018-06-15T09:14:39.688Z,14.37
2018-06-15T09:17:09.258Z,13.33
2018-06-15T09:19:38.794Z,13.53
2018-06-15T09:22:08.281Z,13.90
2018-06-15T09:24:37.349Z,14.00
2018-06-15T09:27:07.001Z,13.67
2018-06-15T09:29:36.352Z,11.77
2018-06-15T09:32:05.837Z,13.50
2018-06-15T09:34:35.215Z,13.07
2018-06-15T09:37:04.850Z,11.63
2018-06-15T09:39:34.866Z,12.10
2018-06-15T09:42:04.219Z,12.40
2018-06-15T09:44:33.607Z,13.40
2018-06-15T09:47:02.327Z,11.87
2018-06-15T09:49:31.871Z,10.87
2018-06-15T09:52:01.276Z,12.27
2018-06-15T09:54:30.651Z,12.53
2018-06-15T09:57:00.126Z,12.70
2018-06-15T09:59:28.382Z,13.23
2018-06-15T10:01:56.598Z,10.40
2018-06-15T10:04:25.188Z,10.60
2018-06-15T10:06:54.002Z,9.30
2018-06-15T10:09:22.438Z,10.63
2018-06-15T10:11:50.680Z,9.73
2018-06-15T10:14:19.290Z,10.03
2018-06-15T10:16:47.789Z,8.70
2018-06-15T10:19:16.444Z,7.90
2018-06-15T10:21:44.922Z,8.87
2018-06-15T10:24:13.452Z,8.17
2018-06-15T10:26:42.171Z,9.20
2018-06-15T10:29:10.813Z,8.23
2018-06-15T10:31:39.368Z,9.17
2018-06-15T10:34:08.390Z,9.80
2018-06-15T10:36:36.729Z,7.93
2018-06-15T10:39:07.750Z,6.80
2018-06-15T10:41:36.362Z,5.40
2018-06-15T10:44:05.150Z,5.40
2018-06-15T10:46:34.237Z,5.10
2018-06-15T10:49:02.834Z,6.83
2018-06-15T10:51:31.709Z,6.40
2018-06-15T10:54:00.339Z,6.80
2018-06-15T10:56:28.918Z,9.60
2018-06-15T10:58:57.131Z,9.87
2018-06-15T11:01:25.698Z,10.50
2018-06-15T11:03:54.434Z,9.57
2018-06-15T11:06:23.204Z,11.10
2018-06-15T11:08:52.933Z,9.57
2018-06-15T11:11:22.372Z,8.87
2018-06-15T11:13:51.943Z,8.10
2018-06-15T11:16:21.564Z,8.80
2018-06-15T11:18:51.395Z,6.67
2018-06-15T11:21:20.268Z,7.37
2018-06-15T11:23:49.830Z,7.63
2018-06-15T11:26:18.990Z,7.37
2018-06-15T11:28:48.314Z,8.33
2018-06-15T11:31:17.160Z,6.60
2018-06-15T11:33:46.280Z,7.47
2018-06-15T11:36:14.959Z,7.50
2018-06-15T11:38:44.282Z,7.80
2018-06-15T11:41:12.573Z,6.90
2018-06-15T11:43:40.845Z,8.40
2018-06-15T11:46:09.568Z,7.30
2018-06-15T11:48:38.195Z,5.83
2018-06-15T11:51:06.903Z,5.87
2018-06-15T11:53:35.068Z,6.27
2018-06-15T11:56:03.546Z,6.10
2018-06-15T11:58:32.129Z,5.33
2018-06-15T12:01:00.768Z,6.00
2018-06-15T12:03:29.553Z,5.67
2018-06-15T12:05:58.389Z,6.60
2018-06-15T12:08:27.014Z,6.03
2018-06-15T12:10:56.138Z,6.80
2018-06-15T12:13:24.880Z,5.97
2018-06-15T12:15:53.088Z,4.50
2018-06-15T12:18:21.632Z,5.50
2018-06-15T12:20:50.530Z,5.17
2018-06-15T12:23:18.986Z,4.23
2018-06-15T12:25:47.625Z,4.07
2018-06-15T12:28:16.402Z,4.53
2018-06-15T12:30:44.849Z,8.90
2018-06-15T12:33:13.522Z,8.60
2018-06-15T12:35:42.048Z,9.07
2018-06-15T12:38:10.566Z,8.20
2018-06-15T12:40:39.149Z,8.07
2018-06-15T12:43:07.992Z,8.50
2018-06-15T12:45:36.784Z,8.13
2018-06-15T12:48:05.557Z,7.80
2018-06-15T12:50:34.192Z,8.30
2018-06-15T12:53:03.005Z,6.73
2018-06-15T12:55:31.645Z,6.77
2018-06-15T12:57:59.905Z,6.60
2018-06-15T13:00:28.415Z,7.30
2018-06-15T13:02:57.183Z,7.20
2018-06-15T13:05:25.398Z,7.23
2018-06-15T13:07:54.212Z,7.60
2018-06-15T13:10:22.660Z,6.80
2018-06-15T13:12:50.842Z,6.70
2018-06-15T13:15:19.730Z,6.30
2018-06-15T13:17:48.524Z,7.20
2018-06-15T13:20:17.268Z,7.20
2018-06-15T13:22:45.730Z,7.37
2018-06-15T13:25:14.349Z,6.93
2018-06-15T13:27:43.029Z,6.90
2018-06-15T13:30:11.812Z,7.20
2018-06-15T13:32:40.431Z,8.30
2018-06-15T13:35:08.596Z,9.00
2018-06-15T13:37:37.184Z,9.63
2018-06-15T13:40:05.497Z,8.93
2018-06-15T13:42:34.252Z,9.30
2018-06-15T13:45:02.388Z,10.10
2018-06-15T13:47:30.915Z,9.80
2018-06-15T13:49:59.238Z,9.43
2018-06-15T13:52:27.862Z,7.80
2018-06-15T13:54:56.569Z,8.77
2018-06-15T13:57:24.902Z,9.40
2018-06-15T13:59:53.654Z,8.50
2018-06-15T14:02:22.558Z,8.43
2018-06-15T14:04:51.360Z,7.53
2018-06-15T14:07:20.466Z,7.73
2018-06-15T14:09:49.290Z,8.00
2018-06-15T14:12:18.063Z,7.30
2018-06-15T14:14:46.732Z,6.77
2018-06-15T14:17:15.261Z,8.20
2018-06-15T14:19:43.601Z,6.50
2018-06-15T14:22:12.214Z,7.97
2018-06-15T14:24:41.052Z,6.93
2018-06-15T14:27:09.666Z,6.90
2018-06-15T14:29:38.538Z,7.53
2018-06-15T14:32:07.160Z,7.90
2018-06-15T14:34:35.851Z,8.13
2018-06-15T14:37:04.509Z,7.70
2018-06-15T14:39:33.134Z,7.80
2018-06-15T14:42:01.287Z,8.90
2018-06-15T14:44:29.954Z,9.03
2018-06-15T14:46:58.961Z,8.87
2018-06-15T14:49:27.721Z,10.07
2018-06-15T14:51:56.293Z,8.83
2018-06-15T14:54:25.013Z,8.43
2018-06-15T14:56:53.591Z,9.10
2018-06-15T14:59:22.367Z,8.40
2018-06-15T15:01:51.137Z,7.80
2018-06-15T15:04:19.701Z,9.07
2018-06-15T15:06:48.600Z,8.77
2018-06-15T15:09:17.116Z,9.40
2018-06-15T15:11:46.016Z,8.40
2018-06-15T15:14:14.882Z,9.80
2018-06-15T15:16:43.327Z,9.43
2018-06-15T15:19:12.143Z,8.70
2018-06-15T15:21:40.617Z,9.93
2018-06-15T15:24:09.170Z,9.43
2018-06-15T15:26:37.761Z,9.20
2018-06-15T15:29:06.459Z,8.63
2018-06-15T15:31:34.949Z,8.90
2018-06-15T15:34:04.377Z,8.13
2018-06-15T15:36:32.857Z,9.43
2018-06-15T15:39:01.739Z,8.47
2018-06-15T15:41:30.329Z,8.70
2018-06-15T15:43:58.919Z,8.70
2018-06-15T15:46:27.471Z,9.83
2018-06-15T15:48:56.521Z,10.00
2018-06-15T15:51:25.507Z,10.40
2018-06-15T15:53:54.467Z,10.00
2018-06-15T15:56:23.013Z,9.77
2018-06-15T15:58:51.506Z,8.50
2018-06-15T16:01:20.269Z,8.70
2018-06-15T16:03:49.299Z,9.03
2018-06-15T16:06:17.864Z,8.73
2018-06-15T16:08:46.596Z,9.10
2018-06-15T16:11:15.272Z,9.33
2018-06-15T16:13:43.842Z,8.60
2018-06-15T16:16:12.419Z,8.90
2018-06-15T16:18:40.993Z,8.50
2018-06-15T16:21:09.422Z,8.10
2018-06-15T16:23:37.747Z,8.43
2018-06-15T16:26:06.482Z,9.80
2018-06-15T16:28:35.149Z,8.03
2018-06-15T16:31:03.802Z,8.20
2018-06-15T16:33:32.244Z,8.50
2018-06-15T16:36:00.697Z,7.50
2018-06-15T16:38:29.577Z,8.40
2018-06-15T16:40:58.369Z,9.27
2018-06-15T16:43:27.154Z,8.90
2018-06-15T16:45:55.753Z,8.13
2018-06-15T16:48:24.561Z,9.00
2018-06-15T16:50:53.419Z,9.30
2018-06-15T16:53:21.971Z,8.90
2018-06-15T16:55:50.807Z,7.47
2018-06-15T16:58:19.327Z,9.60
2018-06-15T17:00:48.636Z,9.40
2018-06-15T17:03:17.164Z,8.37
2018-06-15T17:05:46.082Z,9.57
2018-06-15T17:08:14.936Z,9.20
2018-06-15T17:10:43.772Z,8.50
2018-06-15T17:13:12.343Z,9.37
2018-06-15T17:15:41.261Z,9.70
2018-06-15T17:18:09.904Z,8.90
2018-06-15T17:20:38.600Z,12.60
2018-06-15T17:23:07.264Z,10.60
2018-06-15T17:25:35.920Z,10.50
2018-06-15T17:28:04.542Z,8.27
2018-06-15T17:30:33.250Z,9.07
2018-06-15T17:33:01.950Z,9.00
2018-06-15T17:35:30.640Z,9.57
2018-06-15T17:38:00.889Z,9.43
2018-06-15T17:40:29.611Z,9.87
2018-06-15T17:42:58.359Z,11.28
2018-06-15T17:45:26.959Z,11.80
2018-06-15T17:47:55.522Z,12.30
2018-06-15T17:50:24.211Z,13.60
2018-06-15T17:52:53.050Z,12.97
2018-06-15T17:55:21.616Z,11.93
2018-06-15T17:57:50.246Z,13.77
2018-06-15T18:00:18.979Z,11.80
2018-06-15T18:02:47.678Z,13.23
2018-06-15T18:05:17.408Z,12.20
2018-06-15T18:07:46.364Z,13.60
2018-06-15T18:10:15.238Z,14.83
2018-06-15T18:12:43.916Z,12.80
2018-06-15T18:15:12.623Z,16.85
2018-06-15T18:17:41.478Z,14.50
2018-06-15T18:20:10.238Z,14.23
2018-06-15T18:22:39.980Z,14.73
2018-06-15T18:25:08.726Z,14.80
2018-06-15T18:27:37.508Z,16.33
2018-06-15T18:30:07.161Z,14.93
2018-06-15T18:32:36.201Z,16.07
2018-06-15T18:35:05.212Z,14.80
2018-06-15T18:37:34.306Z,14.80
2018-06-15T18:40:03.288Z,14.47
2018-06-15T18:42:31.992Z,14.67
2018-06-15T18:45:00.326Z,13.00
2018-06-15T18:47:29.772Z,14.83
2018-06-15T18:49:58.780Z,14.47
2018-06-15T18:52:27.409Z,14.00
2018-06-15T18:54:56.099Z,13.93
2018-06-15T18:57:24.747Z,15.30
2018-06-15T18:59:53.637Z,15.37
2018-06-15T19:02:22.534Z,16.20
2018-06-15T19:04:51.471Z,16.13
2018-06-15T19:07:20.175Z,19.60
2018-06-15T19:09:48.944Z,28.17
2018-06-15T19:12:17.898Z,15.77
2018-06-15T19:14:46.769Z,17.13
2018-06-15T19:17:15.025Z,15.17
2018-06-15T19:19:44.140Z,15.90
2018-06-15T19:22:12.436Z,17.60
2018-06-15T19:24:41.178Z,15.97
2018-06-15T19:27:09.817Z,16.77
2018-06-15T19:29:38.751Z,17.47
2018-06-15T19:32:08.519Z,17.90
2018-06-15T19:34:38.872Z,17.80
2018-06-15T19:37:08.087Z,19.03
2018-06-15T19:39:38.718Z,19.80
2018-06-15T19:42:08.730Z,19.33
2018-06-15T19:44:37.450Z,18.53
2018-06-15T19:47:06.958Z,19.70
2018-06-15T19:49:36.555Z,18.17
2018-06-15T19:52:05.500Z,19.10
2018-06-15T19:54:34.689Z,22.17
2018-06-15T19:57:04.321Z,23.10
2018-06-15T19:59:32.930Z,21.60
2018-06-15T20:02:01.663Z,22.70
2018-06-15T20:04:30.999Z,22.60
2018-06-15T20:07:00.011Z,23.30
2018-06-15T20:09:30.057Z,24.20
2018-06-15T20:11:58.711Z,24.00
2018-06-15T20:14:27.872Z,20.60
2018-06-15T20:16:56.798Z,20.00
2018-06-15T20:19:25.580Z,21.10
2018-06-15T20:21:54.261Z,21.90
2018-06-15T20:24:22.841Z,20.77
2018-06-15T20:26:52.012Z,20.87
2018-06-15T20:29:20.596Z,20.37
2018-06-15T20:31:49.512Z,22.53
2018-06-15T20:34:18.124Z,22.47
2018-06-15T20:36:46.801Z,24.50
2018-06-15T20:39:15.726Z,23.00
2018-06-15T20:41:45.349Z,22.10
2018-06-15T20:44:13.814Z,25.07
2018-06-15T20:46:42.344Z,23.83
2018-06-15T20:49:10.606Z,22.57
2018-06-15T20:51:39.170Z,26.37
2018-06-15T20:54:08.094Z,25.63
2018-06-15T20:56:36.788Z,28.07
2018-06-15T20:59:05.316Z,28.57
2018-06-15T21:01:33.803Z,24.60
2018-06-15T21:04:02.519Z,24.63
2018-06-15T21:06:31.233Z,26.10
2018-06-15T21:08:59.810Z,23.40
2018-06-15T21:11:28.396Z,22.20
2018-06-15T21:13:57.250Z,24.60
2018-06-15T21:16:26.105Z,19.97
2018-06-15T21:18:54.866Z,23.90
2018-06-15T21:21:23.564Z,19.30
2018-06-15T21:23:52.139Z,19.60
2018-06-15T21:26:20.718Z,24.67
2018-06-15T21:28:49.558Z,21.53
2018-06-15T21:31:18.107Z,23.37
2018-06-15T21:33:47.280Z,23.13
2018-06-15T21:36:16.077Z,26.33
2018-06-15T21:38:44.620Z,25.00
2018-06-15T21:41:13.432Z,27.10
2018-06-15T21:43:42.680Z,21.73
2018-06-15T21:46:11.569Z,21.30
2018-06-15T21:48:40.194Z,18.20
2018-06-15T21:51:09.062Z,20.53
2018-06-15T21:53:37.908Z,19.53
2018-06-15T21:56:06.707Z,17.27
2018-06-15T21:58:35.440Z,22.77
2018-06-15T22:01:04.275Z,23.27
2018-06-15T22:03:32.810Z,23.33
2018-06-15T22:06:01.404Z,19.80
2018-06-15T22:08:29.972Z,22.43
2018-06-15T22:10:58.848Z,23.17
2018-06-15T22:13:27.340Z,21.23
2018-06-15T22:15:55.938Z,23.77
2018-06-15T22:18:24.669Z,22.60
2018-06-15T22:20:53.412Z,21.63
2018-06-15T22:23:22.306Z,24.10
2018-06-15T22:25:51.016Z,22.70
2018-06-15T22:28:19.794Z,24.03
2018-06-15T22:30:48.636Z,24.40
2018-06-15T22:33:17.358Z,25.30
2018-06-15T22:35:46.127Z,24.00
2018-06-15T22:38:14.378Z,20.40
2018-06-15T22:40:43.330Z,22.23
2018-06-15T22:43:11.897Z,26.60
2018-06-15T22:45:40.496Z,21.37
2018-06-15T22:48:09.139Z,21.93
2018-06-15T22:50:37.690Z,21.87
2018-06-15T22:53:07.067Z,24.80
2018-06-15T22:55:35.908Z,24.87
2018-06-15T22:58:04.582Z,24.47
2018-06-15T23:00:33.275Z,24.70
2018-06-15T23:03:02.125Z,23.43
2018-06-15T23:05:31.116Z,21.20
2018-06-15T23:07:59.764Z,22.87
2018-06-15T23:10:28.371Z,24.80
2018-06-15T23:12:56.881Z,24.30
2018-06-15T23:15:25.594Z,23.93
2018-06-15T23:17:54.196Z,26.50
2018-06-15T23:20:22.764Z,26.70
2018-06-15T23:22:51.351Z,26.83
2018-06-15T23:25:19.935Z,25.77
2018-06-15T23:27:48.649Z,26.07
2018-06-15T23:30:17.425Z,29.10
2018-06-15T23:32:46.219Z,25.93
2018-06-15T23:35:15.009Z,24.70
2018-06-15T23:37:43.644Z,23.00
2018-06-15T23:40:12.453Z,23.73
2018-06-15T23:42:41.039Z,23.67
2018-06-15T23:45:09.577Z,27.63
2018-06-15T23:47:38.399Z,23.90
2018-06-15T23:50:07.959Z,23.83
2018-06-15T23:52:36.825Z,26.40
2018-06-15T23:55:05.724Z,27.53
2018-06-15T23:57:34.344Z,25.03
